Time;durP1;ratioP1;P1;durP2;ratioP2;P2;SDS_P1;SDS_P2;PMS_P1;PMS_P2;Temp;Humidity;BMP_temperature;BMP_pressure;BME280_temperature;BME280_humidity;BME280_pressure;Samples;Min_cycle;Max_cycle;Signal;HPM_P1;HPM_P2
2023/12/08 00:01:32;;;;;;;18.95;9.55;;;;;;;;;;5015870;28;20060;-92
2023/12/08 00:04:04;;;;;;;14.95;6.57;;;;;;;;;;5014959;28;20057;-92
2023/12/08 00:06:33;;;;;;;15.20;6.78;;;;;;;;;;5013748;28;20164;-89
2023/12/08 00:09:11;;;;;;;19.20;8.13;;;;;;;;;;5015882;28;20081;-91
2023/12/08 00:11:52;;;;;;;16.27;8.48;;;;;;;;;;5015738;28;20040;-92
2023/12/08 00:14:23;;;;;;;11.60;5.30;;;;;;;;;;5029952;28;20054;-91
2023/12/08 00:17:05;;;;;;;17.52;9.27;;;;;;;;;;5018405;28;20158;-92
2023/12/08 00:19:46;;;;;;;19.27;9.93;;;;;;;;;;5016811;28;20041;-91
2023/12/08 00:22:17;;;;;;;27.77;11.23;;;;;;;;;;5016681;28;20097;-90
2023/12/08 00:24:53;;;;;;;18.38;7.88;;;;;;;;;;5016701;28;20064;-90
2023/12/08 00:27:23;;;;;;;19.75;8.50;;;;;;;;;;5016325;28;20050;-91
2023/12/08 00:29:55;;;;;;;12.50;6.22;;;;;;;;;;5015951;28;20077;-91
2023/12/08 00:32:36;;;;;;;13.02;6.55;;;;;;;;;;5017062;28;20268;-91
2023/12/08 00:35:12;;;;;;;11.20;5.50;;;;;;;;;;5017141;28;20046;-91
2023/12/08 00:37:53;;;;;;;19.67;8.40;;;;;;;;;;5033026;28;20147;-92
2023/12/08 00:40:25;;;;;;;11.50;6.85;;;;;;;;;;5036773;28;20072;-92
2023/12/08 00:42:55;;;;;;;10.82;5.28;;;;;;;;;;5034687;28;20049;-91
2023/12/08 00:45:26;;;;;;;11.40;6.75;;;;;;;;;;5052185;28;20051;-89
2023/12/08 00:47:59;;;;;;;15.77;7.18;;;;;;;;;;5032841;28;20053;-90
2023/12/08 00:50:43;;;;;;;18.08;7.78;;;;;;;;;;5034563;28;20049;-91
2023/12/08 00:53:24;;;;;;;11.05;5.10;;;;;;;;;;5033810;28;20144;-92
2023/12/08 00:56:07;;;;;;;7.43;4.68;;;;;;;;;;5047474;28;20608;-92
2023/12/08 00:58:38;;;;;;;18.33;7.03;;;;;;;;;;5033713;28;20076;-92
2023/12/08 01:01:09;;;;;;;14.35;6.30;;;;;;;;;;5032740;28;20056;-91
2023/12/08 01:03:50;;;;;;;15.57;7.03;;;;;;;;;;5034897;28;20045;-91
2023/12/08 01:06:31;;;;;;;9.77;5.78;;;;;;;;;;5035137;28;20108;-91
2023/12/08 01:09:05;;;;;;;8.82;4.75;;;;;;;;;;5050693;28;20045;-90
2023/12/08 01:11:51;;;;;;;11.77;6.53;;;;;;;;;;5032519;28;20053;-91
2023/12/08 01:14:33;;;;;;;9.15;5.47;;;;;;;;;;5034574;28;20041;-91
2023/12/08 01:17:11;;;;;;;15.45;6.80;;;;;;;;;;5034454;28;20055;-91
2023/12/08 01:19:49;;;;;;;16.30;7.28;;;;;;;;;;5036623;28;20065;-91
2023/12/08 01:22:28;;;;;;;14.77;6.78;;;;;;;;;;5038782;28;20044;-91
2023/12/08 01:25:14;;;;;;;11.10;6.85;;;;;;;;;;5036838;28;20077;-92
2023/12/08 01:27:46;;;;;;;11.40;6.75;;;;;;;;;;5049944;28;20302;-90
2023/12/08 01:30:27;;;;;;;8.82;5.18;;;;;;;;;;5032592;28;20057;-92
2023/12/08 01:39:53;;;;;;;9.70;5.30;;;;;;;;;;5051540;28;20244;-92
2023/12/08 01:42:25;;;;;;;22.67;4.82;;;;;;;;;;5033580;28;20041;-91
2023/12/08 01:44:58;;;;;;;9.02;5.43;;;;;;;;;;5033570;28;20073;-91
2023/12/08 01:47:30;;;;;;;11.55;4.95;;;;;;;;;;5151545;23;20050;-91
2023/12/08 01:50:12;;;;;;;9.95;4.80;;;;;;;;;;5012908;28;20046;-91
2023/12/08 01:52:42;;;;;;;12.15;5.57;;;;;;;;;;5012860;28;20046;-91
2023/12/08 01:55:23;;;;;;;11.25;4.65;;;;;;;;;;5014095;28;20096;-91
2023/12/08 01:58:05;;;;;;;8.68;4.72;;;;;;;;;;5013507;28;20069;-91
2023/12/08 02:00:37;;;;;;;10.93;5.45;;;;;;;;;;5014127;28;20053;-91
2023/12/08 02:03:07;;;;;;;8.40;4.68;;;;;;;;;;5013001;28;20113;-91
2023/12/08 02:05:48;;;;;;;14.27;6.00;;;;;;;;;;5015649;28;20119;-92
2023/12/08 02:08:30;;;;;;;;;;;;;;;;;;5027232;28;20113;-89
2023/12/08 02:11:04;;;;;;;9.13;4.82;;;;;;;;;;5027909;28;19988;-90
2023/12/08 02:13:38;;;;;;;9.52;4.90;;;;;;;;;;5027975;28;20434;-92
2023/12/08 02:16:28;;;;;;;11.57;5.75;;;;;;;;;;5011804;28;20103;-92
2023/12/08 02:19:07;;;;;;;11.98;6.28;;;;;;;;;;5011590;28;20109;-91
2023/12/08 02:21:41;;;;;;;12.00;5.82;;;;;;;;;;5011690;28;20054;-91
2023/12/08 02:24:10;;;;;;;7.97;4.13;;;;;;;;;;5010752;28;20064;-91
2023/12/08 02:26:43;;;;;;;9.30;4.22;;;;;;;;;;5028508;28;20053;-91
2023/12/08 02:29:15;;;;;;;10.80;4.32;;;;;;;;;;4996211;28;20073;-92
2023/12/08 02:32:07;;;;;;;9.20;5.53;;;;;;;;;;5012245;28;20056;-91
2023/12/08 02:34:50;;;;;;;8.32;3.72;;;;;;;;;;5011343;28;20084;-90
2023/12/08 02:37:32;;;;;;;8.65;3.75;;;;;;;;;;5012683;28;20454;-91
2023/12/08 02:40:12;;;;;;;8.65;4.15;;;;;;;;;;5011886;28;20046;-92
2023/12/08 02:42:50;;;;;;;8.55;4.68;;;;;;;;;;5011151;28;20142;-91
2023/12/08 02:45:19;;;;;;;13.45;5.88;;;;;;;;;;5007840;28;20050;-91
2023/12/08 02:47:53;;;;;;;10.25;4.20;;;;;;;;;;5012892;28;20089;-92
2023/12/08 02:50:26;;;;;;;12.35;5.53;;;;;;;;;;5033630;28;20081;-90
2023/12/08 02:52:57;;;;;;;10.35;4.57;;;;;;;;;;5027930;28;20068;-92
2023/12/08 02:55:32;;;;;;;8.43;4.60;;;;;;;;;;5013020;28;20046;-91
2023/12/08 02:58:13;;;;;;;8.27;5.28;;;;;;;;;;5015357;28;20118;-91
2023/12/08 03:00:41;;;;;;;7.18;4.47;;;;;;;;;;5016258;28;20081;-91
2023/12/08 03:03:53;;;;;;;10.57;5.00;;;;;;;;;;5088898;28;20790;-92
2023/12/08 03:06:34;;;;;;;8.63;4.55;;;;;;;;;;5087248;28;20052;-90
2023/12/08 03:09:16;;;;;;;11.00;5.43;;;;;;;;;;5085902;28;20086;-92
2023/12/08 03:11:52;;;;;;;6.13;4.05;;;;;;;;;;5084665;28;20059;-91
2023/12/08 03:14:21;;;;;;;9.65;4.40;;;;;;;;;;5086157;28;20079;-91
2023/12/08 03:17:03;;;;;;;9.60;5.88;;;;;;;;;;5086113;28;20053;-90
2023/12/08 03:19:44;;;;;;;13.27;5.50;;;;;;;;;;5084427;28;20041;-91
2023/12/08 03:22:19;;;;;;;7.18;3.97;;;;;;;;;;5084885;28;20060;-91
2023/12/08 03:24:47;;;;;;;8.57;4.22;;;;;;;;;;5091705;28;20032;-92
2023/12/08 03:27:31;;;;;;;7.18;4.55;;;;;;;;;;5089491;28;20057;-90
2023/12/08 03:30:12;;;;;;;7.55;4.25;;;;;;;;;;5091700;28;20053;-91
2023/12/08 03:32:51;;;;;;;6.80;3.40;;;;;;;;;;5092313;28;20040;-92
2023/12/08 03:35:22;;;;;;;9.77;4.65;;;;;;;;;;5092080;28;20037;-92
2023/12/08 03:37:57;;;;;;;12.10;4.13;;;;;;;;;;5092775;28;20036;-92
2023/12/08 03:40:37;;;;;;;8.25;5.05;;;;;;;;;;5092842;28;20108;-92
2023/12/08 03:43:10;;;;;;;12.35;4.65;;;;;;;;;;5092166;28;20044;-91
2023/12/08 03:45:38;;;;;;;9.02;4.65;;;;;;;;;;5088720;28;20190;-92
2023/12/08 03:51:43;;;;;;;10.90;4.47;;;;;;;;;;5085582;28;20066;-91
2023/12/08 03:54:20;;;;;;;7.15;4.32;;;;;;;;;;5086204;28;20053;-92
2023/12/08 03:57:01;;;;;;;8.00;3.85;;;;;;;;;;5086270;28;20104;-91
2023/12/08 03:59:29;;;;;;;9.57;4.63;;;;;;;;;;5086925;28;20045;-90
2023/12/08 04:02:00;;;;;;;11.95;5.05;;;;;;;;;;5088694;28;20056;-91
2023/12/08 04:04:45;;;;;;;9.75;5.25;;;;;;;;;;5085334;28;20060;-91
2023/12/08 04:07:13;;;;;;;10.57;5.22;;;;;;;;;;5082996;28;20443;-91
2023/12/08 04:09:57;;;;;;;10.02;4.90;;;;;;;;;;5084841;28;20043;-92
2023/12/08 04:12:38;;;;;;;8.38;5.15;;;;;;;;;;5082426;28;20112;-91
2023/12/08 04:15:06;;;;;;;8.25;5.25;;;;;;;;;;5072437;28;20053;-91
2023/12/08 04:17:38;;;;;;;12.63;3.85;;;;;;;;;;5077882;28;20059;-91
2023/12/08 04:20:09;;;;;;;10.00;5.38;;;;;;;;;;5075595;28;20036;-91
2023/12/08 04:22:42;;;;;;;10.63;4.75;;;;;;;;;;5069870;28;20049;-91
2023/12/08 04:25:11;;;;;;;11.07;5.63;;;;;;;;;;5070096;28;20053;-91
2023/12/08 04:27:40;;;;;;;8.02;3.78;;;;;;;;;;5070173;28;20063;-90
2023/12/08 04:30:17;;;;;;;13.75;4.93;;;;;;;;;;5069322;28;20040;-92
2023/12/08 04:32:49;;;;;;;12.55;5.05;;;;;;;;;;5069366;28;20041;-91
2023/12/08 04:35:18;;;;;;;9.05;4.80;;;;;;;;;;5069635;28;20044;-91
2023/12/08 04:37:47;;;;;;;12.80;6.88;;;;;;;;;;5071167;28;20075;-92
2023/12/08 04:40:19;;;;;;;8.15;4.10;;;;;;;;;;5069032;28;20049;-90
2023/12/08 04:43:00;;;;;;;11.90;5.45;;;;;;;;;;5069330;28;20118;-92
2023/12/08 04:45:36;;;;;;;10.70;6.53;;;;;;;;;;5068989;28;20055;-92
2023/12/08 05:06:45;;;;;;;12.60;6.73;;;;;;;;;;5435541;22;20512;-92
2023/12/08 05:09:27;;;;;;;13.80;5.90;;;;;;;;;;5055861;28;20170;-92
2023/12/08 05:12:05;;;;;;;14.15;6.50;;;;;;;;;;5055954;28;20066;-91
2023/12/08 05:14:50;;;;;;;12.13;6.85;;;;;;;;;;5056158;28;20054;-92
2023/12/08 05:17:53;;;;;;;10.73;4.95;;;;;;;;;;5055564;28;20045;-91
2023/12/08 05:20:24;;;;;;;12.57;5.53;;;;;;;;;;5393355;22;20071;-92
2023/12/08 05:23:13;;;;;;;11.35;5.80;;;;;;;;;;5055785;28;20046;-91
2023/12/08 05:25:54;;;;;;;11.70;4.72;;;;;;;;;;5054658;28;20037;-91
2023/12/08 05:28:38;;;;;;;19.23;7.28;;;;;;;;;;5073704;22;20056;-91
2023/12/08 05:31:19;;;;;;;13.80;6.47;;;;;;;;;;5075932;28;20108;-92
2023/12/08 05:33:50;;;;;;;17.60;6.93;;;;;;;;;;5072309;28;20045;-91
2023/12/08 05:36:32;;;;;;;13.48;5.80;;;;;;;;;;5074355;28;20033;-92
2023/12/08 05:39:03;;;;;;;9.73;4.75;;;;;;;;;;5069621;28;20060;-91
2023/12/08 05:41:49;;;;;;;12.13;5.65;;;;;;;;;;5068524;28;20049;-92
2023/12/08 05:44:31;;;;;;;15.82;7.97;;;;;;;;;;5072236;28;20049;-91
2023/12/08 05:47:12;;;;;;;17.60;7.47;;;;;;;;;;5069547;28;20143;-92
2023/12/08 05:49:53;;;;;;;10.20;5.75;;;;;;;;;;5068557;28;20175;-91
2023/12/08 05:52:37;;;;;;;16.17;6.93;;;;;;;;;;5071794;28;20035;-91
2023/12/08 05:55:18;;;;;;;11.10;5.32;;;;;;;;;;5067515;28;20036;-92
2023/12/08 05:58:03;;;;;;;6.45;3.20;;;;;;;;;;5068193;28;20116;-91
2023/12/08 06:01:05;;;;;;;13.60;6.55;;;;;;;;;;5068284;28;20430;-91
2023/12/08 06:03:36;;;;;;;9.43;5.32;;;;;;;;;;5068444;28;20065;-90
2023/12/08 06:06:21;;;;;;;18.60;7.78;;;;;;;;;;5069147;28;20117;-91
2023/12/08 06:08:52;;;;;;;14.13;7.68;;;;;;;;;;5068668;28;20044;-92
2023/12/08 06:11:34;;;;;;;16.90;6.65;;;;;;;;;;5069456;28;20093;-91
2023/12/08 06:14:15;;;;;;;9.93;5.20;;;;;;;;;;5065217;28;20117;-91
2023/12/08 06:16:56;;;;;;;17.50;7.18;;;;;;;;;;5062997;28;20052;-91
2023/12/08 06:19:29;;;;;;;17.17;6.53;;;;;;;;;;5061741;28;20075;-91
2023/12/08 06:22:00;;;;;;;12.23;5.25;;;;;;;;;;5063511;28;20049;-90
2023/12/08 06:24:37;;;;;;;16.55;7.90;;;;;;;;;;5064862;28;20048;-92
2023/12/08 06:27:08;;;;;;;9.75;6.43;;;;;;;;;;5064001;28;20342;-91
2023/12/08 06:29:38;;;;;;;13.80;6.60;;;;;;;;;;5065891;28;20305;-92
2023/12/08 06:32:08;;;;;;;17.05;8.00;;;;;;;;;;5063276;28;20074;-91
2023/12/08 06:34:49;;;;;;;14.07;7.65;;;;;;;;;;5064327;28;20063;-92
2023/12/08 06:37:21;;;;;;;10.70;6.45;;;;;;;;;;5065142;28;20067;-93
2023/12/08 06:39:56;;;;;;;16.10;7.85;;;;;;;;;;5065175;28;20171;-92
2023/12/08 06:42:25;;;;;;;17.80;8.55;;;;;;;;;;5064262;28;20134;-92
2023/12/08 06:45:07;;;;;;;15.43;7.32;;;;;;;;;;5064384;28;20049;-92
2023/12/08 06:47:36;;;;;;;16.00;6.75;;;;;;;;;;5064348;28;20124;-92
2023/12/08 06:50:06;;;;;;;18.55;7.53;;;;;;;;;;5065356;28;20143;-92
2023/12/08 06:52:40;;;;;;;10.88;5.00;;;;;;;;;;5063459;28;20071;-91
2023/12/08 06:55:15;;;;;;;12.18;5.93;;;;;;;;;;5066823;28;20079;-92
2023/12/08 06:57:58;;;;;;;16.25;6.85;;;;;;;;;;5065582;28;20063;-91
2023/12/08 07:00:26;;;;;;;17.55;7.97;;;;;;;;;;5064352;28;20073;-91
2023/12/08 07:02:56;;;;;;;14.57;6.97;;;;;;;;;;5063292;28;20049;-92
2023/12/08 07:05:28;;;;;;;12.25;5.60;;;;;;;;;;5062899;28;20049;-92
2023/12/08 07:07:57;;;;;;;16.23;7.95;;;;;;;;;;5063662;28;20053;-92
2023/12/08 07:10:26;;;;;;;14.23;6.50;;;;;;;;;;5069707;28;20041;-93
2023/12/08 07:12:54;;;;;;;18.45;8.00;;;;;;;;;;5069640;28;20055;-92
2023/12/08 07:15:29;;;;;;;12.30;6.40;;;;;;;;;;5065559;28;20202;-92
2023/12/08 07:18:05;;;;;;;12.73;6.45;;;;;;;;;;5065725;28;20068;-91
2023/12/08 07:20:50;;;;;;;21.83;8.45;;;;;;;;;;5064466;28;20045;-92
2023/12/08 07:23:21;;;;;;;15.38;7.47;;;;;;;;;;5069691;28;20039;-92
2023/12/08 15:39:17;;;;;;;22.95;11.10;;;;;;;;;;5064918;28;20065;-90
2023/12/08 15:42:09;;;;;;;29.70;11.88;;;;;;;;;;5063350;28;20063;-90
2023/12/08 15:45:24;;;;;;;26.20;11.88;;;;;;;;;;5063667;28;20055;-91
2023/12/08 15:59:15;;;;;;;23.38;10.95;;;;;;;;;;5084241;28;20055;-91
2023/12/08 16:02:04;;;;;;;22.65;10.57;;;;;;;;;;5080979;28;20319;-91
2023/12/08 16:04:58;;;;;;;37.35;13.68;;;;;;;;;;5082477;28;20217;-91
2023/12/08 16:08:10;;;;;;;;;;;;;;;;;;;;;
2023/12/08 16:11:00;;;;;;;;;;;;;;;;;;;;;
2023/12/08 16:14:24;;;;;;;;;;;;;;;;;;;;;
2023/12/08 16:17:21;;;;;;;23.85;10.52;;;;;;;;;;5028103;28;20052;-91
2023/12/08 16:20:31;;;;;;;25.90;11.02;;;;;;;;;;5016697;28;20227;-91
2023/12/08 16:23:33;;;;;;;32.20;13.65;;;;;;;;;;5031776;28;20041;-90
2023/12/08 16:26:05;;;;;;;30.70;12.05;;;;;;;;;;5026746;28;20105;-90
2023/12/08 16:28:38;;;;;;;35.22;10.60;;;;;;;;;;5026801;28;20053;-90
2023/12/08 16:31:08;;;;;;;37.80;13.77;;;;;;;;;;5027265;28;20091;-92
2023/12/08 16:33:55;;;;;;;23.75;9.80;;;;;;;;;;5044136;28;20041;-91
2023/12/08 16:36:35;;;;;;;40.90;14.40;;;;;;;;;;5028084;28;20060;-90
2023/12/08 16:39:07;;;;;;;37.55;12.60;;;;;;;;;;5044919;28;20480;-90
2023/12/08 16:41:47;;;;;;;25.70;11.57;;;;;;;;;;5047815;28;20225;-91
2023/12/08 16:44:20;;;;;;;39.60;14.35;;;;;;;;;;5101266;28;20148;-89
2023/12/08 16:47:04;;;;;;;36.25;11.15;;;;;;;;;;5087674;28;20049;-91
2023/12/08 16:49:45;;;;;;;40.40;15.80;;;;;;;;;;5085344;28;20051;-90
2023/12/08 16:52:18;;;;;;;33.75;11.75;;;;;;;;;;5091529;28;20059;-90
2023/12/08 16:54:59;;;;;;;30.58;11.88;;;;;;;;;;5105759;28;20044;-91
2023/12/08 16:57:41;;;;;;;34.47;12.93;;;;;;;;;;5085278;28;20088;-90
2023/12/08 18:07:11;;;;;;;36.22;15.15;;;;;;;;;;844290;22;20300;-89
2023/12/08 18:09:56;;;;;;;42.88;14.13;;;;;;;;;;5083811;28;20088;-90
2023/12/08 18:12:39;;;;;;;;;;;;;;;;;;5084395;28;20055;-90
2023/12/08 18:15:21;;;;;;;37.28;13.63;;;;;;;;;;5082026;28;19924;-90
2023/12/08 18:18:09;;;;;;;35.70;14.30;;;;;;;;;;5084699;28;20060;-91
2023/12/08 18:20:54;;;;;;;34.75;13.57;;;;;;;;;;5078469;28;20096;-91
2023/12/08 18:23:24;;;;;;;52.13;15.13;;;;;;;;;;5082661;28;20048;-91
2023/12/08 18:26:14;;;;;;;46.50;15.32;;;;;;;;;;5082586;28;20044;-91
2023/12/08 18:28:47;;;;;;;40.83;15.65;;;;;;;;;;5084048;28;20055;-91
2023/12/08 18:31:29;;;;;;;40.28;13.95;;;;;;;;;;5080845;28;20067;-91
2023/12/08 18:34:03;;;;;;;39.85;14.35;;;;;;;;;;5081219;28;20056;-90
2023/12/08 18:36:45;;;;;;;47.42;15.15;;;;;;;;;;5075441;28;20048;-90
2023/12/08 18:39:26;;;;;;;48.83;16.40;;;;;;;;;;5076499;28;20123;-90
2023/12/08 18:53:01;;;;;;;118.38;44.83;;;;;;;;;;5082034;28;20052;-91
2023/12/08 18:55:40;;;;;;;43.00;15.38;;;;;;;;;;5086821;28;20052;-91
2023/12/08 18:58:11;;;;;;;38.95;14.95;;;;;;;;;;5083156;28;20431;-90
2023/12/08 19:00:59;;;;;;;44.25;15.75;;;;;;;;;;5079829;28;20044;-90
2023/12/08 19:03:29;;;;;;;57.28;15.07;;;;;;;;;;5080091;28;20053;-90
2023/12/08 19:06:11;;;;;;;41.08;15.32;;;;;;;;;;5081253;28;20056;-90
2023/12/08 19:08:54;;;;;;;49.33;15.10;;;;;;;;;;5081130;28;20083;-91
2023/12/08 19:11:24;;;;;;;55.45;15.15;;;;;;;;;;5099480;28;20049;-90
2023/12/08 19:13:53;;;;;;;44.17;13.95;;;;;;;;;;5096478;28;20105;-90
2023/12/08 19:16:37;;;;;;;59.55;17.33;;;;;;;;;;5095013;28;20028;-92
2023/12/08 19:19:09;;;;;;;40.20;12.23;;;;;;;;;;5081866;28;20044;-91
2023/12/08 19:21:50;;;;;;;52.75;16.38;;;;;;;;;;5094296;28;20143;-90
2023/12/08 19:27:08;;;;;;;55.47;17.63;;;;;;;;;;5104354;28;20052;-90
2023/12/08 19:29:49;;;;;;;59.00;15.23;;;;;;;;;;5084015;28;20052;-90
2023/12/08 19:32:21;;;;;;;52.28;17.48;;;;;;;;;;5086995;28;20058;-91
2023/12/08 19:35:08;;;;;;;52.15;17.10;;;;;;;;;;5091340;28;20078;-90
2023/12/08 19:37:53;;;;;;;52.97;15.30;;;;;;;;;;5089728;28;20184;-90
2023/12/08 19:40:53;;;;;;;37.67;13.70;;;;;;;;;;5101240;28;20044;-91
2023/12/08 19:43:41;;;;;;;43.65;16.55;;;;;;;;;;5089601;28;20060;-90
2023/12/08 19:46:24;;;;;;;38.65;14.57;;;;;;;;;;5091965;28;20036;-90
2023/12/08 19:48:53;;;;;;;46.15;14.98;;;;;;;;;;5088356;28;20048;-91
2023/12/08 19:51:24;;;;;;;53.00;16.85;;;;;;;;;;5088771;28;20050;-90
2023/12/08 19:53:52;;;;;;;41.40;16.10;;;;;;;;;;5089625;28;20044;-89
2023/12/08 19:56:25;;;;;;;48.55;17.25;;;;;;;;;;5090054;28;20044;-90
2023/12/08 19:59:05;;;;;;;65.55;16.20;;;;;;;;;;5090952;28;20056;-90
2023/12/08 20:01:34;;;;;;;54.58;17.25;;;;;;;;;;5090610;28;20036;-90
2023/12/08 20:04:02;;;;;;;51.30;16.20;;;;;;;;;;5092769;28;20056;-90
2023/12/08 20:06:45;;;;;;;45.60;16.27;;;;;;;;;;5089594;28;20059;-90
2023/12/08 20:09:26;;;;;;;55.47;17.88;;;;;;;;;;5089512;28;20036;-91
2023/12/08 20:12:14;;;;;;;58.20;16.50;;;;;;;;;;5108206;28;20127;-90
2023/12/08 20:14:55;;;;;;;;;;;;;;;;;;5091327;28;20116;-91
2023/12/08 20:17:36;;;;;;;51.53;15.48;;;;;;;;;;5091147;28;19988;-91
2023/12/08 20:20:17;;;;;;;50.70;16.90;;;;;;;;;;5093479;28;20380;-90
2023/12/08 20:22:52;;;;;;;50.30;16.23;;;;;;;;;;5096791;28;20058;-90
2023/12/08 20:25:33;;;;;;;66.80;19.17;;;;;;;;;;5106745;28;20485;-91
2023/12/08 20:28:14;;;;;;;44.15;17.30;;;;;;;;;;5164272;22;20044;-90
2023/12/08 20:30:56;;;;;;;54.05;16.27;;;;;;;;;;5104194;28;20103;-90
2023/12/08 20:33:37;;;;;;;40.55;14.45;;;;;;;;;;5087016;28;20044;-91
2023/12/08 20:36:10;;;;;;;53.63;16.50;;;;;;;;;;5088592;28;20049;-90
2023/12/08 20:38:51;;;;;;;64.07;18.73;;;;;;;;;;5086772;28;20052;-92
2023/12/08 20:41:25;;;;;;;57.92;18.42;;;;;;;;;;5088742;28;20102;-91
2023/12/08 20:44:17;;;;;;;55.92;18.75;;;;;;;;;;5098519;28;20062;-90
2023/12/08 20:47:01;;;;;;;48.03;15.70;;;;;;;;;;5086997;28;20049;-91
2023/12/08 20:49:33;;;;;;;51.45;17.60;;;;;;;;;;5086136;28;20056;-90
2023/12/08 20:52:03;;;;;;;69.90;19.15;;;;;;;;;;5104085;28;20060;-90
2023/12/08 20:54:44;;;;;;;60.75;17.90;;;;;;;;;;5085961;28;20049;-91
2023/12/08 20:57:15;;;;;;;53.55;16.27;;;;;;;;;;5087927;28;20055;-89
2023/12/08 20:59:55;;;;;;;48.00;16.95;;;;;;;;;;5086206;28;20084;-91
2023/12/08 21:02:36;;;;;;;60.17;17.75;;;;;;;;;;5100388;28;20051;-91
2023/12/08 21:05:22;;;;;;;50.70;17.13;;;;;;;;;;5089871;28;20055;-89
2023/12/08 21:07:54;;;;;;;54.47;18.90;;;;;;;;;;5091238;28;20106;-91
2023/12/08 21:10:34;;;;;;;60.17;18.63;;;;;;;;;;5088313;28;20490;-90
2023/12/08 21:13:15;;;;;;;54.28;18.65;;;;;;;;;;5104640;28;20041;-91
2023/12/08 21:15:57;;;;;;;65.18;20.25;;;;;;;;;;5087621;28;20044;-90
2023/12/08 21:18:38;;;;;;;54.67;18.48;;;;;;;;;;5089278;28;20059;-92
2023/12/08 21:21:37;;;;;;;49.42;18.17;;;;;;;;;;5090613;28;20033;-92
2023/12/08 21:24:42;;;;;;;54.55;17.05;;;;;;;;;;5090447;28;20057;-91
2023/12/08 21:27:30;;;;;;;61.50;18.70;;;;;;;;;;5089538;28;20047;-90
2023/12/08 21:30:32;;;;;;;63.00;18.88;;;;;;;;;;5087796;28;20048;-90
2023/12/08 21:33:13;;;;;;;48.47;16.65;;;;;;;;;;5086225;28;20032;-90
2023/12/08 21:36:04;;;;;;;52.25;16.83;;;;;;;;;;5088179;28;20062;-91
2023/12/08 21:38:37;;;;;;;56.72;17.67;;;;;;;;;;5087420;28;20116;-90
2023/12/08 21:41:08;;;;;;;51.28;15.88;;;;;;;;;;5086919;28;20068;-91
2023/12/08 21:43:51;;;;;;;57.78;18.25;;;;;;;;;;5087968;28;20044;-91
2023/12/08 21:46:38;;;;;;;47.50;17.15;;;;;;;;;;5086901;28;20095;-90
2023/12/08 21:49:20;;;;;;;59.40;18.50;;;;;;;;;;5087102;28;20205;-90
2023/12/08 21:52:01;;;;;;;45.15;16.30;;;;;;;;;;5089784;28;20074;-90
2023/12/08 21:54:29;;;;;;;62.58;16.25;;;;;;;;;;5088238;28;20048;-91
2023/12/08 21:57:07;;;;;;;48.70;17.70;;;;;;;;;;5089233;28;20049;-90
2023/12/08 21:59:48;;;;;;;55.10;18.85;;;;;;;;;;5088118;28;20060;-90
2023/12/08 22:02:27;;;;;;;45.30;16.55;;;;;;;;;;5085657;28;20059;-89
2023/12/08 22:05:10;;;;;;;46.80;17.02;;;;;;;;;;5099509;28;20041;-89
2023/12/08 22:07:51;;;;;;;67.93;19.83;;;;;;;;;;5085183;28;20049;-90
2023/12/08 22:10:33;;;;;;;50.20;16.50;;;;;;;;;;5085386;28;20053;-90
2023/12/08 22:13:14;;;;;;;59.38;18.55;;;;;;;;;;5095580;28;20062;-90
2023/12/08 22:15:46;;;;;;;53.53;18.75;;;;;;;;;;5084989;28;20066;-91
2023/12/08 22:18:32;;;;;;;71.00;18.33;;;;;;;;;;5085436;28;20048;-90
2023/12/08 22:21:13;;;;;;;54.60;17.73;;;;;;;;;;5083677;28;20044;-90
2023/12/08 22:23:54;;;;;;;54.63;18.88;;;;;;;;;;5083795;28;20057;-91
2023/12/08 22:26:34;;;;;;;59.10;18.30;;;;;;;;;;5085710;28;20049;-92
2023/12/08 22:29:17;;;;;;;61.13;19.45;;;;;;;;;;5085169;28;20116;-90
2023/12/08 22:31:49;;;;;;;62.67;19.58;;;;;;;;;;5086499;28;20104;-91
2023/12/08 22:34:22;;;;;;;63.65;18.10;;;;;;;;;;5086575;28;20078;-91
2023/12/08 22:37:05;;;;;;;55.25;17.63;;;;;;;;;;5082820;28;20048;-90
2023/12/08 22:39:46;;;;;;;61.13;18.23;;;;;;;;;;5085726;28;20044;-90
2023/12/08 22:42:23;;;;;;;64.65;18.67;;;;;;;;;;5086161;28;20108;-90
2023/12/08 22:44:57;;;;;;;58.17;19.15;;;;;;;;;;5088463;28;20055;-91
2023/12/08 22:47:27;;;;;;;53.17;16.73;;;;;;;;;;5084896;28;20064;-91
2023/12/08 22:50:08;;;;;;;51.58;16.27;;;;;;;;;;5082611;28;20048;-91
2023/12/08 22:52:51;;;;;;;54.78;18.75;;;;;;;;;;5086590;28;20052;-91
2023/12/08 22:55:20;;;;;;;57.03;20.55;;;;;;;;;;5102842;28;20075;-90
2023/12/08 22:58:01;;;;;;;56.45;16.63;;;;;;;;;;5084407;28;20099;-90
2023/12/08 23:00:42;;;;;;;54.17;18.02;;;;;;;;;;5084607;28;20112;-90
2023/12/08 23:03:13;;;;;;;51.75;18.58;;;;;;;;;;5084848;28;20051;-90
2023/12/08 23:05:41;;;;;;;71.72;20.25;;;;;;;;;;5105624;28;20083;-91
2023/12/08 23:08:14;;;;;;;65.07;19.67;;;;;;;;;;5086192;28;20048;-91
2023/12/08 23:10:43;;;;;;;78.40;17.98;;;;;;;;;;5085970;28;20045;-91
2023/12/08 23:13:18;;;;;;;65.75;16.67;;;;;;;;;;5087042;28;20103;-90
2023/12/08 23:15:48;;;;;;;56.95;18.48;;;;;;;;;;5086470;28;20040;-90
2023/12/08 23:18:32;;;;;;;44.88;15.98;;;;;;;;;;5088624;28;20087;-90
2023/12/08 23:21:15;;;;;;;52.03;15.90;;;;;;;;;;5087221;28;20042;-90
2023/12/08 23:24:03;;;;;;;46.45;16.58;;;;;;;;;;5088328;28;20121;-90
2023/12/08 23:26:43;;;;;;;58.50;18.35;;;;;;;;;;5088310;28;20254;-91
2023/12/08 23:29:22;;;;;;;55.20;17.42;;;;;;;;;;5088749;28;20139;-91
2023/12/08 23:32:02;;;;;;;58.90;18.58;;;;;;;;;;5088945;28;20052;-91
2023/12/08 23:34:46;;;;;;;53.60;16.48;;;;;;;;;;5072782;28;20084;-91
2023/12/08 23:37:18;;;;;;;59.70;18.70;;;;;;;;;;5087377;28;20044;-91
2023/12/08 23:40:00;;;;;;;72.63;19.90;;;;;;;;;;5086249;28;20097;-90
2023/12/08 23:42:44;;;;;;;61.22;18.77;;;;;;;;;;5086844;28;20112;-91
2023/12/08 23:45:28;;;;;;;68.20;18.40;;;;;;;;;;5087169;28;20456;-90
2023/12/08 23:47:59;;;;;;;48.88;16.27;;;;;;;;;;5088184;28;20053;-92
2023/12/08 23:50:36;;;;;;;65.25;18.73;;;;;;;;;;5087438;28;20048;-91
2023/12/08 23:53:07;;;;;;;60.78;18.23;;;;;;;;;;5088899;28;20084;-91
2023/12/08 23:55:45;;;;;;;64.22;18.35;;;;;;;;;;5089021;28;20048;-89
2023/12/08 23:58:13;;;;;;;54.00;18.20;;;;;;;;;;5088760;28;20076;-91
